Terminal Aerodrome Forecast
Issued by NWS Buffalo, NY

Home | Current Version | Previous Version | Text Only | Print | Product List | Glossary On
Versions: 1 2 3 4 5 6 7 8 9 10 11 12 13 14 15 16 17 18 19 20 21 22 23 24 25 26 27 28
000
FTUS41 KBUF 011700
TAFBUF
TAF
KBUF 011724Z 0118/0218 09007KT P6SM FEW007 BKN015 OVC019
     FM011930 06007KT P6SM BKN035
     FM020000 07007KT P6SM BKN050
     FM020100 07007KT P6SM SCT050
     FM020500 10006KT P6SM SCT200
     FM021000 14004KT P6SM SCT250
     FM021400 18005KT P6SM SCT250=

USA.gov is the U.S. government's official web portal to all federal, state and local government web resources and services.